Latest Weather Observations for Jervis Bay Airfield

IDN60901

Issued at 4:11 am EDT Tuesday 21 January 2020 (issued every 10 minutes, with the page automatically refreshed every 10 minutes)

About weather observations | Map of Canberra area stations | Latest observations for Canberra area | Other Formats
Station Details ID: 068264 Name: JERVIS BAY AIRFIELD AWS Lat: -35.14 Lon: 150.70 Height: 57.18 m
Data from the previous 72 hours. | See also: Recent months at Jervis Bay Airfield
Date/Time
EDT
Temp
°C
App
Temp
°C
Dew
Point
°C
Rel
Hum
%
Delta-T
°C
Wind Press
QNH
hPa
Press
MSL
hPa
Rain since
9am
mm
Dir  Spd
km/h
Gust
km/h
Spd
kts
Gust
kts
21/04:00am 17.5 16.2 13.8 79 2.1 WNW 13 17 7 9 1002.8 1002.5 20.8
21/03:30am 17.4 17.3 13.9 80 2.0 W 7 9 4 5 1002.4 1002.1 20.8
21/03:00am 17.9 17.0 13.6 76 2.5 WNW 11 13 6 7 1002.6 1002.3 20.8
21/02:30am 17.2 17.1 15.9 92 0.8 NW 11 13 6 7 1002.8 1002.5 20.8
21/02:00am 17.9 19.2 17.6 98 0.2 WNW 7 9 4 5 1003.1 1002.8 20.8
21/01:30am 18.2 19.3 17.9 98 0.2 W 9 13 5 7 1003.2 1002.9 20.8
21/01:00am 18.6 19.8 18.3 98 0.2 WNW 9 13 5 7 1003.2 1002.9 20.8
21/12:30am 18.5 20.3 18.2 98 0.2 NW 6 9 3 5 1003.3 1003.0 20.8
21/12:00am 18.1 19.7 17.8 98 0.2 ENE 6 7 3 4 1003.5 1003.2 20.8
 
Date/Time
EDT
Temp
°C
App
Temp
°C
Dew
Point
°C
Rel
Hum
%
Delta-T
°C
Wind Press
QNH
hPa
Press
MSL
hPa
Rain since
9am
mm
Dir  Spd
km/h
Gust
km/h
Spd
kts
Gust
kts
20/11:30pm 18.4 19.9 18.1 98 0.2 NW 7 9 4 5 1003.7 1003.4 20.8
20/11:00pm 18.5 20.3 18.2 98 0.2 WNW 6 7 3 4 1003.6 1003.3 20.8
20/10:30pm 19.2 22.4 18.9 98 0.2 CALM 0 0 0 0 1003.5 1003.2 20.8
20/10:00pm 19.1 22.3 18.8 98 0.2 CALM 0 0 0 0 1003.2 1002.9 20.8
20/09:30pm 19.5 22.5 19.2 98 0.2 SSW 2 6 1 3 1002.6 1002.3 20.8
20/09:00pm 19.8 22.9 19.5 98 0.2 NNE 2 9 1 5 1002.0 1001.7 20.8
20/08:30pm 20.3 22.3 20.0 98 0.2 NNE 9 11 5 6 1001.6 1001.3 20.8
20/08:00pm 21.6 25.4 20.1 91 1.0 CALM 0 0 0 0 1001.0 1000.8 20.8
20/07:30pm 22.3 24.8 20.2 88 1.4 ENE 7 11 4 6 1000.9 1000.7 20.8
20/07:00pm 22.3 23.5 19.8 86 1.6 NE 13 15 7 8 1001.0 1000.8 20.8
20/06:30pm 24.1 26.9 20.4 80 2.4 WSW 6 9 3 5 1000.7 1000.5 20.8
20/06:00pm 23.6 26.0 20.9 85 1.8 S 9 15 5 8 1000.5 1000.3 20.8
20/05:30pm 23.0 25.2 20.5 86 1.6 SW 9 15 5 8 1000.1 999.9 20.8
20/05:00pm 21.5 23.7 20.3 93 0.8 N 9 19 5 10 1001.0 1000.8 20.8
20/04:30pm 21.8 24.6 21.5 98 0.2 NNW 9 22 5 12 1001.2 1000.9 20.8
20/04:22pm 20.5 23.0 20.2 98 0.2 NW 7 9 4 5 1001.2 1000.9 20.8
20/04:03pm 20.5 21.8 20.2 98 0.2 WNW 13 17 7 9 1001.2 1000.9 20.8
20/04:00pm 20.4 22.1 20.1 98 0.2 WNW 11 15 6 8 1001.0 1000.8 20.8
20/03:30pm 19.1 20.6 18.8 98 0.2 ENE 9 13 5 7 1001.5 1001.2 20.8
20/03:00pm 18.9 19.1 18.6 98 0.2 ENE 15 22 8 12 1001.7 1001.4 20.6
20/02:34pm 18.9 19.5 18.6 98 0.2 ENE 13 17 7 9 1001.6 1001.3 18.8
20/02:30pm 19.0 19.6 18.7 98 0.2 ENE 13 19 7 10 1001.8 1001.5 18.6
20/02:00pm 22.4 24.1 20.1 87 1.5 E 11 24 6 13 1000.8 1000.6 3.6
20/01:59pm 22.4 23.6 19.9 86 1.6 E 13 24 7 13 1000.7 1000.5 2.6
20/01:30pm 23.5 23.3 19.8 80 2.4 ENE 20 33 11 18 1000.5 1000.3 0.2
20/01:00pm 23.2 23.3 20.0 82 2.1 ENE 19 24 10 13 1001.0 1000.8 0.2
20/12:30pm 25.0 25.5 18.4 66 4.2 NE 13 17 7 9 1002.3 1002.0 0.2
20/12:00pm 25.1 25.5 19.9 73 3.4 ENE 17 24 9 13 1002.6 1002.3 0.2
20/11:30am 24.9 25.4 20.8 78 2.7 NE 19 26 10 14 1003.3 1003.0 0.2
20/11:00am 24.6 25.2 20.3 77 2.8 NE 17 22 9 12 1003.8 1003.5 0.0
20/10:30am 24.6 26.0 20.3 77 2.8 NE 13 17 7 9 1004.1 1003.8 0.0
20/10:00am 23.5 25.6 20.2 82 2.1 SSE 9 15 5 8 1004.0 1003.7 0.0
20/09:30am 23.2 25.9 20.3 84 1.9 S 6 11 3 6 1004.1 1003.8 0.0
20/09:00am 22.7 24.5 21.2 91 1.0 SSW 13 17 7 9 1004.4 1004.1 2.8
20/08:30am 22.2 23.5 20.8 92 0.9 SSW 15 19 8 10 1004.2 1003.9 2.8
20/08:00am 21.6 23.2 20.8 95 0.5 SSW 13 17 7 9 1003.8 1003.5 2.8
20/07:30am 20.7 22.9 20.4 98 0.2 SW 9 13 5 7 1003.6 1003.3 2.8
20/07:00am 19.9 21.7 19.6 98 0.2 SW 9 11 5 6 1003.5 1003.2 2.8
20/06:30am 19.3 21.2 19.0 98 0.2 W 7 9 4 5 1003.4 1003.1 2.8
20/06:00am 19.7 21.4 19.4 98 0.2 W 9 11 5 6 1003.2 1002.9 2.8
20/05:30am 19.9 22.1 19.6 98 0.2 WSW 7 11 4 6 1002.8 1002.5 2.8
20/05:00am 20.4 22.5 20.1 98 0.2 SW 9 11 5 6 1002.9 1002.6 2.8
20/04:30am 20.4 21.7 20.1 98 0.2 SW 13 17 7 9 1002.8 1002.5 2.8
20/04:00am 20.2 21.8 19.9 98 0.2 SW 11 13 6 7 1003.0 1002.7 2.8
20/03:30am 20.1 21.3 19.8 98 0.2 SSW 13 15 7 8 1003.3 1003.0 2.8
20/03:00am 20.0 21.5 19.7 98 0.2 S 11 15 6 8 1003.2 1002.9 2.8
20/02:30am 20.0 21.5 19.7 98 0.2 SSW 11 15 6 8 1003.1 1002.8 2.8
20/02:00am 20.0 21.9 19.7 98 0.2 WSW 9 15 5 8 1002.9 1002.6 2.8
20/01:30am 20.4 22.5 20.1 98 0.2 S 9 11 5 6 1003.1 1002.8 2.8
20/01:00am 20.5 23.0 20.2 98 0.2 SW 7 9 4 5 1004.1 1003.8 2.8
20/12:30am 20.8 23.0 20.5 98 0.2 WSW 9 9 5 5 1005.0 1004.7 2.8
20/12:00am 20.8 23.4 20.5 98 0.2 W 7 9 4 5 1005.3 1005.0 2.8
 
Date/Time
EDT
Temp
°C
App
Temp
°C
Dew
Point
°C
Rel
Hum
%
Delta-T
°C
Wind Press
QNH
hPa
Press
MSL
hPa
Rain since
9am
mm
Dir  Spd
km/h
Gust
km/h
Spd
kts
Gust
kts
19/11:30pm 20.8 23.4 20.5 98 0.2 WNW 7 9 4 5 1005.8 1005.5 2.8
19/11:00pm 20.6 23.3 20.3 98 0.2 W 6 9 3 5 1005.9 1005.6 2.8
19/10:30pm 20.6 23.1 20.3 98 0.2 W 7 11 4 6 1005.6 1005.3 2.8
19/10:00pm 20.6 23.3 20.3 98 0.2 NNE 6 6 3 3 1005.7 1005.4 2.8
19/09:30pm 20.7 24.2 20.4 98 0.2 NNE 2 9 1 5 1005.6 1005.3 2.8
19/09:00pm 21.1 25.2 20.8 98 0.2 CALM 0 4 0 2 1005.4 1005.1 2.8
19/08:30pm 21.1 24.1 20.8 98 0.2 NNE 6 7 3 4 1005.2 1004.9 2.8
19/08:00pm 21.4 23.9 21.1 98 0.2 NNE 9 11 5 6 1005.1 1004.8 2.8
19/07:30pm 21.5 23.4 20.5 94 0.6 NE 11 13 6 7 1004.9 1004.6 2.8
19/07:00pm 21.8 24.1 20.6 93 0.8 NE 9 13 5 7 1005.0 1004.7 2.8
19/06:30pm 22.2 23.6 21.0 93 0.8 ENE 15 19 8 10 1004.9 1004.6 2.8
19/06:00pm 22.7 23.8 20.4 87 1.5 ENE 15 20 8 11 1004.5 1004.2 2.8
19/05:30pm 22.5 24.8 21.3 93 0.8 E 11 19 6 10 1004.8 1004.5 2.8
19/05:00pm 21.9 24.2 21.4 97 0.3 NE 11 15 6 8 1005.2 1004.9 2.8
19/04:30pm 22.2 24.6 21.5 96 0.5 ENE 11 17 6 9 1005.6 1005.3 2.8
19/04:00pm 22.1 24.8 21.4 96 0.5 E 9 13 5 7 1006.0 1005.7 2.8
19/03:30pm 21.6 26.0 21.3 98 0.2 CALM 0 6 0 3 1006.3 1006.0 2.8
19/03:00pm 21.0 23.9 20.7 98 0.2 ESE 6 9 3 5 1006.8 1006.5 2.4
19/02:30pm 20.9 23.8 20.6 98 0.2 SE 6 11 3 6 1007.0 1006.8 1.6
19/02:00pm 21.0 23.2 20.3 96 0.5 ESE 9 13 5 7 1007.3 1007.1 0.8
19/01:30pm 21.9 22.6 18.9 83 1.9 SE 13 17 7 9 1007.6 1007.4 0.0
19/01:00pm 22.5 23.1 18.7 79 2.4 SSW 13 17 7 9 1007.9 1007.7 0.0
19/12:30pm 23.3 23.9 18.6 75 3.0 S 13 19 7 10 1008.3 1008.1 0.0
19/12:00pm 23.1 24.3 18.2 74 3.1 S 9 15 5 8 1008.5 1008.3 0.0
19/11:30am 22.6 23.0 18.2 76 2.8 SSW 13 17 7 9 1008.7 1008.5 0.0
19/11:00am 22.0 22.0 18.0 78 2.5 SSW 15 19 8 10 1008.9 1008.7 0.0
19/10:30am 21.8 21.6 18.6 82 2.0 SSW 17 20 9 11 1008.8 1008.6 0.0
19/10:00am 21.4 21.2 18.6 84 1.8 SSW 17 22 9 12 1009.0 1008.8 0.0
19/09:30am 21.6 21.1 18.6 83 1.9 SW 19 24 10 13 1008.9 1008.7 0.0
19/09:00am 21.3 20.8 17.9 81 2.1 SSW 17 20 9 11 1009.2 1009.0 0.4
19/08:30am 21.1 21.1 18.1 83 1.9 SW 15 20 8 11 1009.1 1008.9 0.4
19/08:00am 20.7 21.3 18.5 87 1.4 SW 13 20 7 11 1008.9 1008.7 0.4
19/07:30am 19.8 20.6 18.1 90 1.1 SW 11 17 6 9 1008.7 1008.5 0.4
19/07:00am 19.5 20.3 18.2 92 0.8 SW 11 13 6 7 1008.6 1008.4 0.4
19/06:30am 18.9 20.1 18.2 96 0.4 WSW 9 11 5 6 1008.5 1008.3 0.4
19/06:00am 18.7 20.1 17.9 95 0.5 WSW 7 9 4 5 1008.3 1008.1 0.4
19/05:30am 18.7 19.8 17.9 95 0.5 SW 9 13 5 7 1008.1 1007.9 0.4
19/05:14am 18.8 19.9 18.1 96 0.4 WSW 9 13 5 7 1008.1 1007.9 0.4
19/05:00am 19.0 19.8 18.2 95 0.5 WSW 11 13 6 7 1008.1 1007.9 0.4
19/04:52am 18.9 19.7 18.1 95 0.5 WSW 11 13 6 7 1008.2 1008.0 0.4
19/04:30am 19.2 19.9 18.0 93 0.7 WSW 11 15 6 8 1008.0 1007.8 0.4
19/04:00am 19.3 19.3 18.1 93 0.7 SW 15 20 8 11 1007.9 1007.7 0.4
19/03:30am 19.4 19.1 18.2 93 0.7 SW 17 20 9 11 1007.9 1007.7 0.4
19/03:00am 19.3 19.8 18.3 94 0.6 SW 13 19 7 10 1008.1 1007.9 0.4
19/02:30am 19.2 19.3 18.4 95 0.5 SW 15 19 8 10 1008.4 1008.2 0.2
19/02:00am 19.2 19.3 18.4 95 0.5 SW 15 20 8 11 1008.7 1008.5 0.2
19/01:30am 19.2 19.0 18.5 96 0.4 SW 17 26 9 14 1009.0 1008.8 0.2
19/01:00am 19.2 18.4 18.4 95 0.5 SW 20 28 11 15 1009.1 1008.9 0.2
19/12:30am 19.2 17.7 18.5 96 0.4 SW 24 33 13 18 1009.2 1009.0 0.2
19/12:25am 19.1 17.9 18.4 96 0.4 SW 22 33 12 18 1009.3 1009.1 0.2
19/12:22am 19.1 18.3 18.4 96 0.4 SW 20 28 11 15 1009.4 1009.2 0.2
19/12:00am 19.2 18.6 18.5 96 0.4 WSW 19 28 10 15 1009.6 1009.4 0.2
 
Date/Time
EDT
Temp
°C
App
Temp
°C
Dew
Point
°C
Rel
Hum
%
Delta-T
°C
Wind Press
QNH
hPa
Press
MSL
hPa
Rain since
9am
mm
Dir  Spd
km/h
Gust
km/h
Spd
kts
Gust
kts
18/11:30pm 19.3 18.8 19.0 98 0.2 SW 20 32 11 17 1009.7 1009.5 0.2
18/11:00pm 19.5 18.6 19.0 97 0.3 SW 22 33 12 18 1009.9 1009.7 0.2
18/10:30pm 19.6 19.0 18.9 96 0.4 WSW 20 28 11 15 1009.9 1009.7 0.2
18/10:00pm 20.2 19.4 19.2 94 0.6 SW 22 33 12 18 1009.8 1009.6 0.2
18/09:30pm 20.1 19.4 19.4 96 0.4 SSW 22 32 12 17 1009.8 1009.6 0.2
18/09:00pm 20.1 19.0 19.4 96 0.4 SSW 24 32 13 17 1009.7 1009.5 0.2
18/08:30pm 20.1 19.4 19.4 96 0.4 SW 22 33 12 18 1009.6 1009.4 0.2
18/08:00pm 20.2 18.6 19.2 94 0.6 SSW 26 37 14 20 1009.3 1009.1 0.2
18/07:30pm 20.1 18.5 19.3 95 0.5 SSW 26 41 14 22 1008.9 1008.7 0.2
18/07:00pm 20.0 18.3 19.0 94 0.6 SSW 26 41 14 22 1008.7 1008.5 0.2
18/06:38pm 20.0 18.4 19.2 95 0.5 SSW 26 37 14 20 1008.5 1008.3 0.2
18/06:30pm 20.0 18.0 19.2 95 0.5 SSW 28 39 15 21 1008.5 1008.3 0.2
18/06:29pm 20.0 18.0 19.2 95 0.5 SSW 28 39 15 21 1008.5 1008.3 0.2
18/06:00pm 19.5 17.8 19.0 97 0.3 SSW 26 37 14 20 1008.8 1008.6 0.2
18/05:50pm 19.4 17.8 19.1 98 0.2 SSW 26 39 14 21 1008.9 1008.7 0.2
18/05:30pm 19.3 17.2 19.0 98 0.2 SSW 28 39 15 21 1008.9 1008.7 0.2
18/05:22pm 18.9 17.0 18.6 98 0.2 SSW 26 37 14 20 1008.8 1008.6 0.2
18/05:09pm 19.0 17.6 18.7 98 0.2 SSW 24 32 13 17 1009.1 1008.9 0.0
18/05:00pm 19.1 18.1 18.8 98 0.2 SSW 22 35 12 19 1009.2 1009.0 0.0
18/04:52pm 19.0 17.6 18.7 98 0.2 SSW 24 32 13 17 1009.3 1009.1 0.0
18/04:34pm 18.8 16.5 18.5 98 0.2 SSW 28 41 15 22 1009.5 1009.3 0.0
18/04:30pm 18.9 16.5 18.2 96 0.4 SSW 28 39 15 21 1009.6 1009.4 0.0
18/04:00pm 20.1 18.4 18.1 88 1.2 SSW 24 35 13 19 1009.8 1009.6 0.0
18/03:30pm 20.2 18.4 17.8 86 1.5 SSW 24 33 13 18 1010.0 1009.8 0.0
18/03:00pm 19.5 17.9 18.3 93 0.7 SW 24 39 13 21 1010.2 1010.0 0.0
18/02:30pm 19.3 17.4 18.6 96 0.4 SW 26 35 14 19 1010.2 1010.0 0.0
18/02:25pm 19.2 17.0 18.7 97 0.3 SW 28 39 15 21 1010.2 1010.0 0.0
18/02:13pm 19.1 17.2 18.6 97 0.3 SW 26 39 14 21 1010.3 1010.1 0.0
18/02:12pm 19.1 17.1 18.4 96 0.4 SW 26 39 14 21 1010.3 1010.1 0.0
18/02:07pm 19.1 17.1 18.4 96 0.4 SW 26 39 14 21 1010.3 1010.1 0.0
18/02:00pm 19.2 17.0 18.7 97 0.3 SW 28 39 15 21 1010.3 1010.1 0.0
18/01:30pm 19.5 17.5 18.2 92 0.8 SW 26 41 14 22 1010.5 1010.3 0.0
18/01:00pm 19.7 17.5 18.7 94 0.6 SSW 28 39 15 21 1010.9 1010.7 0.0
18/12:34pm 19.2 16.7 18.0 93 0.7 SW 28 43 15 23 1011.0 1010.8 0.0
18/12:30pm 19.3 16.8 18.1 93 0.7 SW 28 37 15 20 1011.0 1010.8 0.0
18/12:00pm 19.8 17.1 17.6 87 1.4 SSW 28 44 15 24 1011.0 1010.8 0.0
18/11:44am 19.8 17.2 17.9 89 1.2 SSW 28 43 15 23 1011.1 1010.9 0.0
18/11:30am 19.5 17.1 18.2 92 0.8 SSW 28 37 15 20 1011.3 1011.1 0.0
18/11:00am 18.9 17.6 18.1 95 0.5 SSW 22 30 12 16 1011.4 1011.2 0.0
18/10:30am 19.9 17.3 17.7 87 1.4 SSW 28 37 15 20 1011.6 1011.4 0.0
18/10:00am 20.2 17.3 18.0 87 1.4 SSW 30 39 16 21 1011.6 1011.4 0.0
18/09:30am 20.0 17.1 18.0 88 1.2 SSW 30 39 16 21 1011.6 1011.4 0.0
18/09:05am 19.9 17.1 18.2 90 1.1 SSW 30 43 16 23 1011.7 1011.5 0.0
18/09:00am 19.8 17.0 18.3 91 0.9 SSW 30 43 16 23 1011.8 1011.6 10.8
18/08:57am 19.9 17.2 18.4 91 0.9 SSW 30 41 16 22 1011.7 1011.5 10.8
18/08:51am 19.9 17.7 18.6 92 0.8 S 28 39 15 21 1011.7 1011.5 10.8
18/08:30am 19.8 17.4 18.3 91 0.9 S 28 37 15 20 1011.6 1011.4 10.8
18/08:00am 19.9 16.9 18.6 92 0.8 S 32 44 17 24 1011.3 1011.1 10.8
18/07:49am 19.9 17.3 18.7 93 0.8 S 30 43 16 23 1011.3 1011.1 10.8
18/07:30am 19.7 16.6 18.5 93 0.7 S 32 43 17 23 1011.0 1010.8 10.8
18/07:27am 19.7 16.6 18.5 93 0.7 S 32 46 17 25 1011.0 1010.8 10.8
18/07:00am 19.7 17.0 18.5 93 0.7 S 30 41 16 22 1010.9 1010.7 10.8
18/06:36am 19.7 16.6 18.5 93 0.7 S 32 44 17 24 1010.5 1010.3 10.8
18/06:30am 19.6 16.9 18.4 93 0.7 S 30 43 16 23 1010.5 1010.3 10.8
18/06:00am 19.5 16.9 18.7 95 0.5 S 30 46 16 25 1010.2 1010.0 10.8
18/05:30am 19.6 17.1 18.8 95 0.5 S 30 43 16 23 1010.3 1010.1 10.8
18/05:06am 19.5 17.4 19.0 97 0.3 S 28 46 15 25 1010.2 1010.0 10.8
18/05:00am 19.5 17.1 19.2 98 0.2 S 30 41 16 22 1010.2 1010.0 10.8
18/04:30am 19.5 16.7 19.0 97 0.3 S 32 43 17 23 1010.1 1009.9 10.8

Latest Capital City Observations: Canberra | Sydney | Melbourne | Brisbane | Adelaide | Perth | Hobart | Darwin

Other formats

Comma delimited format used in spreadsheet applications
http://www.bom.gov.au/fwo/IDN60903/IDN60903.94751.axf

JavaScript Object Notation format (JSON) in row-major order
http://www.bom.gov.au/fwo/IDN60903/IDN60903.94751.json

Data quality

Most of these data are generated automatically and are frequently updated. Quality checks on data are not normally performed. It is possible for incorrect values to appear. Refer to information at About Latest Weather Observations and please check the disclaimer before using these data.